sensor_id;sensor_type;location;lat;lon;timestamp;temperature;humidity
15969;DHT22;8085;53.472;9.794;2023-06-04T00:00:58;11.70;23.10
15969;DHT22;8085;53.472;9.794;2023-06-04T00:03:25;11.70;99.90
15969;DHT22;8085;53.472;9.794;2023-06-04T00:05:52;11.70;99.90
15969;DHT22;8085;53.472;9.794;2023-06-04T00:08:19;11.70;99.90
15969;DHT22;8085;53.472;9.794;2023-06-04T00:10:46;11.60;99.90
15969;DHT22;8085;53.472;9.794;2023-06-04T00:13:13;11.60;99.90
15969;DHT22;8085;53.472;9.794;2023-06-04T00:15:40;11.60;99.90
15969;DHT22;8085;53.472;9.794;2023-06-04T00:18:09;11.60;1.00
15969;DHT22;8085;53.472;9.794;2023-06-04T00:20:39;11.40;99.90
15969;DHT22;8085;53.472;9.794;2023-06-04T00:23:06;11.30;1.00
15969;DHT22;8085;53.472;9.794;2023-06-04T00:25:33;11.30;1.00
15969;DHT22;8085;53.472;9.794;2023-06-04T00:27:59;11.20;99.90
15969;DHT22;8085;53.472;9.794;2023-06-04T00:30:26;11.20;99.90
15969;DHT22;8085;53.472;9.794;2023-06-04T00:32:53;11.10;99.90
15969;DHT22;8085;53.472;9.794;2023-06-04T00:35:22;11.10;99.90
15969;DHT22;8085;53.472;9.794;2023-06-04T00:37:48;11.00;99.90
15969;DHT22;8085;53.472;9.794;2023-06-04T00:40:15;11.00;99.90
15969;DHT22;8085;53.472;9.794;2023-06-04T00:42:44;11.00;99.90
15969;DHT22;8085;53.472;9.794;2023-06-04T00:45:11;11.00;99.90
15969;DHT22;8085;53.472;9.794;2023-06-04T00:47:39;11.00;99.90
15969;DHT22;8085;53.472;9.794;2023-06-04T00:50:08;11.00;99.90
15969;DHT22;8085;53.472;9.794;2023-06-04T00:52:36;11.00;1.00
15969;DHT22;8085;53.472;9.794;2023-06-04T00:55:04;11.00;1.00
15969;DHT22;8085;53.472;9.794;2023-06-04T00:57:31;10.90;1.00
15969;DHT22;8085;53.472;9.794;2023-06-04T00:59:58;10.90;1.00
15969;DHT22;8085;53.472;9.794;2023-06-04T01:02:25;10.90;1.00
15969;DHT22;8085;53.472;9.794;2023-06-04T01:04:56;10.90;1.00
15969;DHT22;8085;53.472;9.794;2023-06-04T01:07:27;10.80;1.00
15969;DHT22;8085;53.472;9.794;2023-06-04T01:09:55;10.80;1.00
15969;DHT22;8085;53.472;9.794;2023-06-04T01:12:23;10.70;1.00
15969;DHT22;8085;53.472;9.794;2023-06-04T01:14:50;10.60;1.00
15969;DHT22;8085;53.472;9.794;2023-06-04T01:17:20;10.50;1.00
15969;DHT22;8085;53.472;9.794;2023-06-04T01:20:18;10.50;1.00
15969;DHT22;8085;53.472;9.794;2023-06-04T01:22:58;10.40;1.00
15969;DHT22;8085;53.472;9.794;2023-06-04T01:25:32;10.40;1.00
15969;DHT22;8085;53.472;9.794;2023-06-04T01:27:59;10.40;23.50
15969;DHT22;8085;53.472;9.794;2023-06-04T01:30:30;10.30;19.80
15969;DHT22;8085;53.472;9.794;2023-06-04T01:32:58;10.30;51.10
15969;DHT22;8085;53.472;9.794;2023-06-04T01:35:26;10.30;97.60
15969;DHT22;8085;53.472;9.794;2023-06-04T01:37:53;10.30;99.90
15969;DHT22;8085;53.472;9.794;2023-06-04T01:40:21;10.20;99.90
15969;DHT22;8085;53.472;9.794;2023-06-04T01:42:49;10.20;99.90
15969;DHT22;8085;53.472;9.794;2023-06-04T01:45:16;10.10;99.90
15969;DHT22;8085;53.472;9.794;2023-06-04T01:47:43;10.10;99.90
15969;DHT22;8085;53.472;9.794;2023-06-04T01:50:10;10.10;99.90
15969;DHT22;8085;53.472;9.794;2023-06-04T01:52:37;10.10;99.90
15969;DHT22;8085;53.472;9.794;2023-06-04T01:55:05;10.10;99.90
15969;DHT22;8085;53.472;9.794;2023-06-04T01:57:33;10.10;99.90
15969;DHT22;8085;53.472;9.794;2023-06-04T02:00:02;10.00;99.90
15969;DHT22;8085;53.472;9.794;2023-06-04T02:02:30;10.00;99.90
15969;DHT22;8085;53.472;9.794;2023-06-04T02:04:57;9.90;99.90
15969;DHT22;8085;53.472;9.794;2023-06-04T02:07:24;9.80;99.90
15969;DHT22;8085;53.472;9.794;2023-06-04T02:09:51;9.80;99.90
15969;DHT22;8085;53.472;9.794;2023-06-04T02:12:18;9.80;99.90
15969;DHT22;8085;53.472;9.794;2023-06-04T02:14:45;9.80;99.90
15969;DHT22;8085;53.472;9.794;2023-06-04T02:17:14;9.80;99.90
15969;DHT22;8085;53.472;9.794;2023-06-04T02:19:42;9.80;99.90
15969;DHT22;8085;53.472;9.794;2023-06-04T02:22:10;9.80;99.90
15969;DHT22;8085;53.472;9.794;2023-06-04T02:24:37;9.80;99.90
15969;DHT22;8085;53.472;9.794;2023-06-04T02:27:04;9.80;99.90
15969;DHT22;8085;53.472;9.794;2023-06-04T02:29:32;9.80;99.90
15969;DHT22;8085;53.472;9.794;2023-06-04T02:31:58;9.70;99.90
15969;DHT22;8085;53.472;9.794;2023-06-04T02:34:27;9.70;99.90
15969;DHT22;8085;53.472;9.794;2023-06-04T02:36:54;9.70;99.90
15969;DHT22;8085;53.472;9.794;2023-06-04T02:39:22;9.60;99.90
15969;DHT22;8085;53.472;9.794;2023-06-04T02:41:49;9.60;1.00
15969;DHT22;8085;53.472;9.794;2023-06-04T02:44:15;9.60;1.00
15969;DHT22;8085;53.472;9.794;2023-06-04T02:46:43;9.60;1.00
15969;DHT22;8085;53.472;9.794;2023-06-04T02:49:10;9.60;1.00
15969;DHT22;8085;53.472;9.794;2023-06-04T02:51:40;9.60;1.00
15969;DHT22;8085;53.472;9.794;2023-06-04T02:54:07;9.50;1.00
15969;DHT22;8085;53.472;9.794;2023-06-04T02:56:35;9.40;1.00
15969;DHT22;8085;53.472;9.794;2023-06-04T02:59:03;9.30;1.00
15969;DHT22;8085;53.472;9.794;2023-06-04T03:01:30;9.30;1.00
15969;DHT22;8085;53.472;9.794;2023-06-04T03:03:57;9.30;1.00
15969;DHT22;8085;53.472;9.794;2023-06-04T03:06:24;9.20;1.00
15969;DHT22;8085;53.472;9.794;2023-06-04T03:08:53;9.20;1.00
15969;DHT22;8085;53.472;9.794;2023-06-04T03:11:21;9.20;1.00
15969;DHT22;8085;53.472;9.794;2023-06-04T03:13:48;9.20;1.00
15969;DHT22;8085;53.472;9.794;2023-06-04T03:16:17;9.20;1.00
15969;DHT22;8085;53.472;9.794;2023-06-04T03:18:44;9.20;1.00
15969;DHT22;8085;53.472;9.794;2023-06-04T03:21:11;9.20;1.00
15969;DHT22;8085;53.472;9.794;2023-06-04T03:23:39;9.20;1.00
15969;DHT22;8085;53.472;9.794;2023-06-04T03:26:07;9.20;1.00
15969;DHT22;8085;53.472;9.794;2023-06-04T03:28:35;9.20;1.00
15969;DHT22;8085;53.472;9.794;2023-06-04T03:31:01;9.20;1.00
15969;DHT22;8085;53.472;9.794;2023-06-04T03:33:28;9.20;1.00
15969;DHT22;8085;53.472;9.794;2023-06-04T03:35:55;9.20;1.00
15969;DHT22;8085;53.472;9.794;2023-06-04T03:38:24;9.10;1.00
15969;DHT22;8085;53.472;9.794;2023-06-04T03:40:51;9.10;1.00
15969;DHT22;8085;53.472;9.794;2023-06-04T03:43:20;9.20;1.00
15969;DHT22;8085;53.472;9.794;2023-06-04T03:45:47;9.30;1.00
15969;DHT22;8085;53.472;9.794;2023-06-04T03:48:14;9.30;1.00
15969;DHT22;8085;53.472;9.794;2023-06-04T03:50:41;9.40;1.00
15969;DHT22;8085;53.472;9.794;2023-06-04T03:53:08;9.50;1.00
15969;DHT22;8085;53.472;9.794;2023-06-04T03:55:35;9.50;1.00
15969;DHT22;8085;53.472;9.794;2023-06-04T03:58:02;9.50;1.00
15969;DHT22;8085;53.472;9.794;2023-06-04T04:00:31;9.60;1.00
15969;DHT22;8085;53.472;9.794;2023-06-04T04:02:57;9.60;1.00
15969;DHT22;8085;53.472;9.794;2023-06-04T04:05:25;9.70;1.00
15969;DHT22;8085;53.472;9.794;2023-06-04T04:07:59;9.70;1.00
15969;DHT22;8085;53.472;9.794;2023-06-04T04:10:26;9.80;1.00
15969;DHT22;8085;53.472;9.794;2023-06-04T04:12:59;9.80;1.00
15969;DHT22;8085;53.472;9.794;2023-06-04T04:15:36;9.90;1.00
15969;DHT22;8085;53.472;9.794;2023-06-04T04:18:04;9.90;1.00
15969;DHT22;8085;53.472;9.794;2023-06-04T04:20:34;10.00;1.00
15969;DHT22;8085;53.472;9.794;2023-06-04T04:23:04;10.00;1.00
15969;DHT22;8085;53.472;9.794;2023-06-04T04:25:34;10.00;1.00
15969;DHT22;8085;53.472;9.794;2023-06-04T04:28:02;10.10;1.00
15969;DHT22;8085;53.472;9.794;2023-06-04T04:30:32;10.10;1.00
15969;DHT22;8085;53.472;9.794;2023-06-04T04:33:08;10.20;1.00
15969;DHT22;8085;53.472;9.794;2023-06-04T04:35:38;10.50;1.00
15969;DHT22;8085;53.472;9.794;2023-06-04T04:38:05;10.70;1.00
15969;DHT22;8085;53.472;9.794;2023-06-04T04:40:33;11.00;1.00
15969;DHT22;8085;53.472;9.794;2023-06-04T04:43:00;11.50;1.00
15969;DHT22;8085;53.472;9.794;2023-06-04T04:45:27;12.20;99.90
15969;DHT22;8085;53.472;9.794;2023-06-04T04:47:54;12.80;37.90
15969;DHT22;8085;53.472;9.794;2023-06-04T04:50:22;13.00;99.90
15969;DHT22;8085;53.472;9.794;2023-06-04T04:52:50;12.90;1.00
15969;DHT22;8085;53.472;9.794;2023-06-04T04:55:17;12.40;99.90
15969;DHT22;8085;53.472;9.794;2023-06-04T04:57:43;12.30;1.00
15969;DHT22;8085;53.472;9.794;2023-06-04T05:00:11;12.10;99.90
15969;DHT22;8085;53.472;9.794;2023-06-04T05:02:39;11.90;1.00
15969;DHT22;8085;53.472;9.794;2023-06-04T05:05:07;11.70;1.00
15969;DHT22;8085;53.472;9.794;2023-06-04T05:07:35;11.70;1.00
15969;DHT22;8085;53.472;9.794;2023-06-04T05:10:02;11.70;35.10
15969;DHT22;8085;53.472;9.794;2023-06-04T05:12:30;11.70;93.60
15969;DHT22;8085;53.472;9.794;2023-06-04T05:14:57;11.70;99.90
15969;DHT22;8085;53.472;9.794;2023-06-04T05:17:24;11.90;99.90
15969;DHT22;8085;53.472;9.794;2023-06-04T05:20:02;12.00;99.90
15969;DHT22;8085;53.472;9.794;2023-06-04T05:22:30;12.10;99.90
15969;DHT22;8085;53.472;9.794;2023-06-04T05:24:59;12.30;1.00
15969;DHT22;8085;53.472;9.794;2023-06-04T05:27:26;12.40;1.00
15969;DHT22;8085;53.472;9.794;2023-06-04T05:29:53;12.60;1.00
15969;DHT22;8085;53.472;9.794;2023-06-04T05:32:37;12.70;1.00
15969;DHT22;8085;53.472;9.794;2023-06-04T05:35:07;12.90;1.00
15969;DHT22;8085;53.472;9.794;2023-06-04T05:37:35;13.00;99.90
15969;DHT22;8085;53.472;9.794;2023-06-04T05:40:06;13.10;99.90
15969;DHT22;8085;53.472;9.794;2023-06-04T05:42:33;13.10;99.90
15969;DHT22;8085;53.472;9.794;2023-06-04T05:45:01;13.10;1.00
15969;DHT22;8085;53.472;9.794;2023-06-04T05:47:28;13.30;1.00
15969;DHT22;8085;53.472;9.794;2023-06-04T05:49:58;13.40;1.00
15969;DHT22;8085;53.472;9.794;2023-06-04T05:52:39;13.60;99.90
15969;DHT22;8085;53.472;9.794;2023-06-04T05:55:27;13.70;99.90
15969;DHT22;8085;53.472;9.794;2023-06-04T05:57:54;13.80;99.90
15969;DHT22;8085;53.472;9.794;2023-06-04T06:00:22;14.00;1.00
15969;DHT22;8085;53.472;9.794;2023-06-04T06:02:49;14.20;99.90
15969;DHT22;8085;53.472;9.794;2023-06-04T06:05:32;14.40;99.90
15969;DHT22;8085;53.472;9.794;2023-06-04T06:08:18;14.50;1.00
15969;DHT22;8085;53.472;9.794;2023-06-04T06:10:49;14.70;1.00
15969;DHT22;8085;53.472;9.794;2023-06-04T06:13:16;14.80;1.00
15969;DHT22;8085;53.472;9.794;2023-06-04T06:15:43;14.80;1.00
15969;DHT22;8085;53.472;9.794;2023-06-04T06:18:10;14.90;1.00
15969;DHT22;8085;53.472;9.794;2023-06-04T06:20:37;15.00;99.90
15969;DHT22;8085;53.472;9.794;2023-06-04T06:23:06;15.00;99.90
15969;DHT22;8085;53.472;9.794;2023-06-04T06:25:33;15.00;1.00
15969;DHT22;8085;53.472;9.794;2023-06-04T06:28:01;15.10;99.90
15969;DHT22;8085;53.472;9.794;2023-06-04T06:30:28;15.30;74.80
15969;DHT22;8085;53.472;9.794;2023-06-04T06:32:55;15.40;1.00
15969;DHT22;8085;53.472;9.794;2023-06-04T06:35:22;15.60;1.00
15969;DHT22;8085;53.472;9.794;2023-06-04T06:37:49;15.60;99.90
15969;DHT22;8085;53.472;9.794;2023-06-04T06:40:16;15.50;99.90
15969;DHT22;8085;53.472;9.794;2023-06-04T06:42:48;15.50;1.00
15969;DHT22;8085;53.472;9.794;2023-06-04T06:45:16;15.50;1.00
15969;DHT22;8085;53.472;9.794;2023-06-04T06:47:43;15.60;1.00
15969;DHT22;8085;53.472;9.794;2023-06-04T06:50:10;15.80;1.00
15969;DHT22;8085;53.472;9.794;2023-06-04T06:52:37;15.80;1.00
15969;DHT22;8085;53.472;9.794;2023-06-04T06:55:04;15.90;14.00
15969;DHT22;8085;53.472;9.794;2023-06-04T06:57:33;16.10;99.90
15969;DHT22;8085;53.472;9.794;2023-06-04T07:00:00;16.10;99.90
15969;DHT22;8085;53.472;9.794;2023-06-04T07:02:28;16.30;1.00
15969;DHT22;8085;53.472;9.794;2023-06-04T07:04:55;16.50;19.20
15969;DHT22;8085;53.472;9.794;2023-06-04T07:07:22;16.40;99.90
15969;DHT22;8085;53.472;9.794;2023-06-04T07:09:52;16.50;1.00
15969;DHT22;8085;53.472;9.794;2023-06-04T07:12:19;16.60;1.00
15969;DHT22;8085;53.472;9.794;2023-06-04T07:14:47;16.80;1.00
15969;DHT22;8085;53.472;9.794;2023-06-04T07:17:14;16.90;1.00
15969;DHT22;8085;53.472;9.794;2023-06-04T07:19:45;17.00;1.00
15969;DHT22;8085;53.472;9.794;2023-06-04T07:22:13;17.10;1.00
15969;DHT22;8085;53.472;9.794;2023-06-04T07:24:41;17.20;1.00
15969;DHT22;8085;53.472;9.794;2023-06-04T07:27:11;17.30;99.90
15969;DHT22;8085;53.472;9.794;2023-06-04T07:29:38;17.20;1.00
15969;DHT22;8085;53.472;9.794;2023-06-04T07:32:06;17.40;99.90
15969;DHT22;8085;53.472;9.794;2023-06-04T07:34:32;17.60;47.90
15969;DHT22;8085;53.472;9.794;2023-06-04T07:37:02;17.70;1.00
15969;DHT22;8085;53.472;9.794;2023-06-04T07:39:29;17.70;99.90
15969;DHT22;8085;53.472;9.794;2023-06-04T07:42:07;17.90;99.90
15969;DHT22;8085;53.472;9.794;2023-06-04T07:44:51;18.10;99.90
15969;DHT22;8085;53.472;9.794;2023-06-04T07:47:18;18.20;70.70
15969;DHT22;8085;53.472;9.794;2023-06-04T07:49:48;18.30;99.90
15969;DHT22;8085;53.472;9.794;2023-06-04T07:52:16;18.50;99.90
15969;DHT22;8085;53.472;9.794;2023-06-04T07:54:43;18.70;99.90
15969;DHT22;8085;53.472;9.794;2023-06-04T07:57:10;18.60;1.00
15969;DHT22;8085;53.472;9.794;2023-06-04T07:59:36;18.70;1.00
15969;DHT22;8085;53.472;9.794;2023-06-04T08:02:03;19.00;1.00
15969;DHT22;8085;53.472;9.794;2023-06-04T08:04:30;18.90;1.00
15969;DHT22;8085;53.472;9.794;2023-06-04T08:06:59;19.30;1.00
15969;DHT22;8085;53.472;9.794;2023-06-04T08:09:28;19.60;1.00
15969;DHT22;8085;53.472;9.794;2023-06-04T08:11:54;19.60;1.00
15969;DHT22;8085;53.472;9.794;2023-06-04T08:14:21;19.50;1.00
15969;DHT22;8085;53.472;9.794;2023-06-04T08:16:50;19.60;1.00
15969;DHT22;8085;53.472;9.794;2023-06-04T08:19:17;19.70;1.00
15969;DHT22;8085;53.472;9.794;2023-06-04T08:21:43;20.00;1.00
15969;DHT22;8085;53.472;9.794;2023-06-04T08:24:11;20.30;1.00
15969;DHT22;8085;53.472;9.794;2023-06-04T08:26:39;20.10;1.00
15969;DHT22;8085;53.472;9.794;2023-06-04T08:29:06;20.30;1.00
15969;DHT22;8085;53.472;9.794;2023-06-04T08:31:34;20.40;1.00
15969;DHT22;8085;53.472;9.794;2023-06-04T08:34:01;20.80;1.00
15969;DHT22;8085;53.472;9.794;2023-06-04T08:36:30;21.30;1.00
15969;DHT22;8085;53.472;9.794;2023-06-04T08:38:58;21.50;1.00
15969;DHT22;8085;53.472;9.794;2023-06-04T08:41:28;21.50;99.90
15969;DHT22;8085;53.472;9.794;2023-06-04T08:43:57;21.30;99.90
15969;DHT22;8085;53.472;9.794;2023-06-04T08:46:26;21.10;99.90
15969;DHT22;8085;53.472;9.794;2023-06-04T08:48:56;21.30;99.90
15969;DHT22;8085;53.472;9.794;2023-06-04T08:51:26;21.30;99.90
15969;DHT22;8085;53.472;9.794;2023-06-04T08:53:53;21.40;99.90
15969;DHT22;8085;53.472;9.794;2023-06-04T08:56:22;21.60;99.90
15969;DHT22;8085;53.472;9.794;2023-06-04T08:58:50;21.60;99.90
15969;DHT22;8085;53.472;9.794;2023-06-04T09:01:18;21.90;99.90
15969;DHT22;8085;53.472;9.794;2023-06-04T09:03:45;22.10;99.90
15969;DHT22;8085;53.472;9.794;2023-06-04T09:06:16;22.20;99.90
15969;DHT22;8085;53.472;9.794;2023-06-04T09:08:43;22.10;99.90
15969;DHT22;8085;53.472;9.794;2023-06-04T09:11:14;22.30;99.90
15969;DHT22;8085;53.472;9.794;2023-06-04T09:13:42;22.50;99.90
15969;DHT22;8085;53.472;9.794;2023-06-04T09:16:10;22.80;99.90
15969;DHT22;8085;53.472;9.794;2023-06-04T09:18:38;22.60;99.90
15969;DHT22;8085;53.472;9.794;2023-06-04T09:21:07;22.60;99.90
15969;DHT22;8085;53.472;9.794;2023-06-04T09:23:34;22.30;99.90
15969;DHT22;8085;53.472;9.794;2023-06-04T09:26:08;22.30;99.90
15969;DHT22;8085;53.472;9.794;2023-06-04T09:28:35;22.40;99.90
15969;DHT22;8085;53.472;9.794;2023-06-04T09:31:02;22.60;99.90
15969;DHT22;8085;53.472;9.794;2023-06-04T09:33:29;22.80;99.90
15969;DHT22;8085;53.472;9.794;2023-06-04T09:35:58;23.10;99.90
15969;DHT22;8085;53.472;9.794;2023-06-04T09:38:33;23.20;99.90
15969;DHT22;8085;53.472;9.794;2023-06-04T09:41:00;23.40;99.90
15969;DHT22;8085;53.472;9.794;2023-06-04T09:43:30;23.50;99.90
15969;DHT22;8085;53.472;9.794;2023-06-04T09:46:08;23.40;99.90
15969;DHT22;8085;53.472;9.794;2023-06-04T09:48:35;23.40;99.90
15969;DHT22;8085;53.472;9.794;2023-06-04T09:51:08;23.40;99.90
15969;DHT22;8085;53.472;9.794;2023-06-04T09:53:35;23.70;99.90
15969;DHT22;8085;53.472;9.794;2023-06-04T09:56:03;23.90;99.90
15969;DHT22;8085;53.472;9.794;2023-06-04T09:58:30;24.10;98.90
15969;DHT22;8085;53.472;9.794;2023-06-04T10:00:58;24.40;97.50
15969;DHT22;8085;53.472;9.794;2023-06-04T10:03:30;24.20;81.30
15969;DHT22;8085;53.472;9.794;2023-06-04T10:05:59;24.20;74.80
15969;DHT22;8085;53.472;9.794;2023-06-04T10:08:29;24.00;83.70
15969;DHT22;8085;53.472;9.794;2023-06-04T10:10:58;24.00;34.10
15969;DHT22;8085;53.472;9.794;2023-06-04T10:13:27;24.10;45.10
15969;DHT22;8085;53.472;9.794;2023-06-04T10:15:56;24.00;48.70
15969;DHT22;8085;53.472;9.794;2023-06-04T10:18:27;24.20;41.90
15969;DHT22;8085;53.472;9.794;2023-06-04T10:20:55;24.50;29.50
15969;DHT22;8085;53.472;9.794;2023-06-04T10:23:23;24.70;29.90
15969;DHT22;8085;53.472;9.794;2023-06-04T10:25:51;24.70;16.20
15969;DHT22;8085;53.472;9.794;2023-06-04T10:28:20;24.10;5.20
15969;DHT22;8085;53.472;9.794;2023-06-04T10:30:47;24.20;7.20
15969;DHT22;8085;53.472;9.794;2023-06-04T10:33:17;24.30;1.00
15969;DHT22;8085;53.472;9.794;2023-06-04T10:35:45;24.30;1.00
15969;DHT22;8085;53.472;9.794;2023-06-04T10:38:13;24.50;1.00
15969;DHT22;8085;53.472;9.794;2023-06-04T10:40:42;24.40;1.00
15969;DHT22;8085;53.472;9.794;2023-06-04T10:43:11;24.30;1.00
15969;DHT22;8085;53.472;9.794;2023-06-04T10:45:39;24.40;1.00
15969;DHT22;8085;53.472;9.794;2023-06-04T10:48:07;24.50;1.00
15969;DHT22;8085;53.472;9.794;2023-06-04T10:50:35;24.50;1.00
15969;DHT22;8085;53.472;9.794;2023-06-04T10:53:13;24.70;1.00
15969;DHT22;8085;53.472;9.794;2023-06-04T10:55:44;24.80;9.80
15969;DHT22;8085;53.472;9.794;2023-06-04T10:58:12;24.50;1.00
15969;DHT22;8085;53.472;9.794;2023-06-04T11:00:40;24.30;1.00
15969;DHT22;8085;53.472;9.794;2023-06-04T11:03:10;24.60;8.10
15969;DHT22;8085;53.472;9.794;2023-06-04T11:05:38;24.50;1.00
15969;DHT22;8085;53.472;9.794;2023-06-04T11:08:05;24.50;1.00
15969;DHT22;8085;53.472;9.794;2023-06-04T11:10:34;24.40;1.00
15969;DHT22;8085;53.472;9.794;2023-06-04T11:13:02;24.60;1.00
15969;DHT22;8085;53.472;9.794;2023-06-04T11:15:39;24.20;1.00
15969;DHT22;8085;53.472;9.794;2023-06-04T11:18:06;23.70;2.00
15969;DHT22;8085;53.472;9.794;2023-06-04T11:20:33;24.00;7.00
15969;DHT22;8085;53.472;9.794;2023-06-04T11:23:00;24.40;12.90
15969;DHT22;8085;53.472;9.794;2023-06-04T11:25:29;24.40;3.50
15969;DHT22;8085;53.472;9.794;2023-06-04T11:28:00;24.50;6.30
15969;DHT22;8085;53.472;9.794;2023-06-04T11:30:27;24.50;1.00
15969;DHT22;8085;53.472;9.794;2023-06-04T11:33:02;24.70;1.00
15969;DHT22;8085;53.472;9.794;2023-06-04T11:35:30;24.70;20.90
15969;DHT22;8085;53.472;9.794;2023-06-04T11:37:58;24.70;1.00
15969;DHT22;8085;53.472;9.794;2023-06-04T11:40:25;24.80;1.00
15969;DHT22;8085;53.472;9.794;2023-06-04T11:42:53;24.90;1.00
15969;DHT22;8085;53.472;9.794;2023-06-04T11:45:21;24.70;1.00
15969;DHT22;8085;53.472;9.794;2023-06-04T11:47:51;24.70;1.00
15969;DHT22;8085;53.472;9.794;2023-06-04T11:50:20;24.90;1.00
15969;DHT22;8085;53.472;9.794;2023-06-04T11:52:47;24.70;1.00
15969;DHT22;8085;53.472;9.794;2023-06-04T11:55:15;24.50;1.00
15969;DHT22;8085;53.472;9.794;2023-06-04T11:57:43;24.60;1.00
15969;DHT22;8085;53.472;9.794;2023-06-04T12:00:11;24.90;1.00
15969;DHT22;8085;53.472;9.794;2023-06-04T12:02:48;25.10;1.00
15969;DHT22;8085;53.472;9.794;2023-06-04T12:05:17;25.10;1.00
15969;DHT22;8085;53.472;9.794;2023-06-04T12:07:46;24.90;1.00
15969;DHT22;8085;53.472;9.794;2023-06-04T12:10:16;25.20;1.00
15969;DHT22;8085;53.472;9.794;2023-06-04T12:12:43;24.90;1.00
15969;DHT22;8085;53.472;9.794;2023-06-04T12:15:10;24.90;1.00
15969;DHT22;8085;53.472;9.794;2023-06-04T12:17:37;24.60;1.00
15969;DHT22;8085;53.472;9.794;2023-06-04T12:20:05;24.60;1.00
15969;DHT22;8085;53.472;9.794;2023-06-04T12:22:33;24.20;1.00
15969;DHT22;8085;53.472;9.794;2023-06-04T12:25:12;24.20;1.00
15969;DHT22;8085;53.472;9.794;2023-06-04T12:27:46;24.50;1.00
15969;DHT22;8085;53.472;9.794;2023-06-04T12:30:13;24.70;1.00
15969;DHT22;8085;53.472;9.794;2023-06-04T12:32:41;24.80;1.00
15969;DHT22;8085;53.472;9.794;2023-06-04T12:35:08;25.10;1.00
15969;DHT22;8085;53.472;9.794;2023-06-04T12:37:35;25.10;1.00
15969;DHT22;8085;53.472;9.794;2023-06-04T12:40:02;25.00;1.00
15969;DHT22;8085;53.472;9.794;2023-06-04T12:42:31;24.80;1.00
15969;DHT22;8085;53.472;9.794;2023-06-04T12:44:58;24.90;1.00
15969;DHT22;8085;53.472;9.794;2023-06-04T12:47:24;25.00;1.00
15969;DHT22;8085;53.472;9.794;2023-06-04T12:49:51;25.00;1.00
15969;DHT22;8085;53.472;9.794;2023-06-04T12:52:18;24.70;1.00
15969;DHT22;8085;53.472;9.794;2023-06-04T12:54:45;24.50;1.00
15969;DHT22;8085;53.472;9.794;2023-06-04T12:57:12;24.60;1.00
15969;DHT22;8085;53.472;9.794;2023-06-04T12:59:40;24.50;1.00
15969;DHT22;8085;53.472;9.794;2023-06-04T13:02:07;24.40;1.00
15969;DHT22;8085;53.472;9.794;2023-06-04T13:04:34;24.30;1.00
15969;DHT22;8085;53.472;9.794;2023-06-04T13:07:01;24.60;1.00
15969;DHT22;8085;53.472;9.794;2023-06-04T13:09:28;24.40;1.00
15969;DHT22;8085;53.472;9.794;2023-06-04T13:11:56;24.60;1.00
15969;DHT22;8085;53.472;9.794;2023-06-04T13:14:22;24.20;1.00
15969;DHT22;8085;53.472;9.794;2023-06-04T13:16:51;24.30;1.00
15969;DHT22;8085;53.472;9.794;2023-06-04T13:19:18;24.70;1.00
15969;DHT22;8085;53.472;9.794;2023-06-04T13:21:46;24.90;1.00
15969;DHT22;8085;53.472;9.794;2023-06-04T13:24:12;24.80;1.00
15969;DHT22;8085;53.472;9.794;2023-06-04T13:26:39;24.70;1.00
15969;DHT22;8085;53.472;9.794;2023-06-04T13:29:07;24.50;1.00
15969;DHT22;8085;53.472;9.794;2023-06-04T13:31:34;24.30;1.00
15969;DHT22;8085;53.472;9.794;2023-06-04T13:34:02;24.60;1.00
15969;DHT22;8085;53.472;9.794;2023-06-04T13:36:29;24.70;1.00
15969;DHT22;8085;53.472;9.794;2023-06-04T13:38:56;24.80;1.00
15969;DHT22;8085;53.472;9.794;2023-06-04T13:41:23;25.00;1.00
15969;DHT22;8085;53.472;9.794;2023-06-04T13:43:50;25.10;1.00
15969;DHT22;8085;53.472;9.794;2023-06-04T13:46:17;25.20;1.00
15969;DHT22;8085;53.472;9.794;2023-06-04T13:48:44;25.10;1.00
15969;DHT22;8085;53.472;9.794;2023-06-04T13:51:12;24.70;1.00
15969;DHT22;8085;53.472;9.794;2023-06-04T13:53:39;24.50;1.00
15969;DHT22;8085;53.472;9.794;2023-06-04T13:56:06;24.40;1.00
15969;DHT22;8085;53.472;9.794;2023-06-04T13:58:33;24.70;1.00
15969;DHT22;8085;53.472;9.794;2023-06-04T14:01:00;24.70;1.00
15969;DHT22;8085;53.472;9.794;2023-06-04T14:03:27;24.70;1.00
15969;DHT22;8085;53.472;9.794;2023-06-04T14:05:54;24.70;1.00
15969;DHT22;8085;53.472;9.794;2023-06-04T14:08:22;24.80;1.00
15969;DHT22;8085;53.472;9.794;2023-06-04T14:10:49;24.80;1.00
15969;DHT22;8085;53.472;9.794;2023-06-04T14:13:17;24.80;1.00
15969;DHT22;8085;53.472;9.794;2023-06-04T14:15:44;24.80;1.00
15969;DHT22;8085;53.472;9.794;2023-06-04T14:18:11;24.70;1.00
15969;DHT22;8085;53.472;9.794;2023-06-04T14:20:38;24.30;1.00
15969;DHT22;8085;53.472;9.794;2023-06-04T14:23:04;24.30;1.00
15969;DHT22;8085;53.472;9.794;2023-06-04T14:25:33;24.30;1.00
15969;DHT22;8085;53.472;9.794;2023-06-04T14:28:02;24.30;1.00
15969;DHT22;8085;53.472;9.794;2023-06-04T14:30:29;24.60;1.00
15969;DHT22;8085;53.472;9.794;2023-06-04T14:32:55;24.50;1.00
15969;DHT22;8085;53.472;9.794;2023-06-04T14:35:22;24.30;1.00
15969;DHT22;8085;53.472;9.794;2023-06-04T14:37:49;24.30;1.00
15969;DHT22;8085;53.472;9.794;2023-06-04T14:40:16;24.40;1.00
15969;DHT22;8085;53.472;9.794;2023-06-04T14:42:44;24.50;1.00
15969;DHT22;8085;53.472;9.794;2023-06-04T14:45:11;24.30;1.00
15969;DHT22;8085;53.472;9.794;2023-06-04T14:47:38;24.10;1.00
15969;DHT22;8085;53.472;9.794;2023-06-04T14:50:05;24.30;1.00
15969;DHT22;8085;53.472;9.794;2023-06-04T14:52:32;24.30;1.00
15969;DHT22;8085;53.472;9.794;2023-06-04T14:54:59;24.40;1.00
15969;DHT22;8085;53.472;9.794;2023-06-04T14:57:26;24.50;1.00
15969;DHT22;8085;53.472;9.794;2023-06-04T14:59:54;24.60;1.00
15969;DHT22;8085;53.472;9.794;2023-06-04T15:02:21;24.50;1.00
15969;DHT22;8085;53.472;9.794;2023-06-04T15:04:48;24.50;1.00
15969;DHT22;8085;53.472;9.794;2023-06-04T15:07:16;24.20;1.00
15969;DHT22;8085;53.472;9.794;2023-06-04T15:09:44;24.00;7.30
15969;DHT22;8085;53.472;9.794;2023-06-04T15:12:13;23.70;12.80
15969;DHT22;8085;53.472;9.794;2023-06-04T15:14:41;23.80;16.60
15969;DHT22;8085;53.472;9.794;2023-06-04T15:17:09;23.70;20.70
15969;DHT22;8085;53.472;9.794;2023-06-04T15:19:36;23.70;27.40
15969;DHT22;8085;53.472;9.794;2023-06-04T15:22:03;23.60;28.20
15969;DHT22;8085;53.472;9.794;2023-06-04T15:24:33;23.60;29.70
15969;DHT22;8085;53.472;9.794;2023-06-04T15:26:59;23.60;33.60
15969;DHT22;8085;53.472;9.794;2023-06-04T15:29:26;23.50;33.90
15969;DHT22;8085;53.472;9.794;2023-06-04T15:31:53;23.10;38.20
15969;DHT22;8085;53.472;9.794;2023-06-04T15:34:21;22.90;45.40
15969;DHT22;8085;53.472;9.794;2023-06-04T15:36:48;23.00;53.70
15969;DHT22;8085;53.472;9.794;2023-06-04T15:39:15;23.20;43.50
15969;DHT22;8085;53.472;9.794;2023-06-04T15:41:42;23.10;44.40
15969;DHT22;8085;53.472;9.794;2023-06-04T15:44:08;22.80;47.50
15969;DHT22;8085;53.472;9.794;2023-06-04T15:46:35;22.90;58.00
15969;DHT22;8085;53.472;9.794;2023-06-04T15:49:05;23.00;54.00
15969;DHT22;8085;53.472;9.794;2023-06-04T15:51:34;22.90;50.70
15969;DHT22;8085;53.472;9.794;2023-06-04T15:54:01;22.60;44.80
15969;DHT22;8085;53.472;9.794;2023-06-04T15:56:28;22.50;52.50
15969;DHT22;8085;53.472;9.794;2023-06-04T15:58:55;22.50;56.40
15969;DHT22;8085;53.472;9.794;2023-06-04T16:01:23;22.50;61.70
15969;DHT22;8085;53.472;9.794;2023-06-04T16:03:50;22.50;67.50